createdAt,value
2023-04-02T00:01:01.042Z,92.00
2023-04-02T00:03:59.655Z,92.65
2023-04-02T00:06:30.521Z,92.18
2023-04-02T00:09:16.282Z,92.73
2023-04-02T00:11:45.901Z,93.51
2023-04-02T00:14:28.813Z,92.99
2023-04-02T00:16:58.030Z,93.33
2023-04-02T00:19:35.121Z,92.80
2023-04-02T00:22:03.571Z,92.43
2023-04-02T00:24:30.194Z,92.77
2023-04-02T00:26:57.366Z,93.02
2023-04-02T00:29:24.114Z,91.64
2023-04-02T00:31:53.045Z,92.26
2023-04-02T00:34:39.184Z,91.93
2023-04-02T00:37:06.183Z,91.64
2023-04-02T00:39:41.863Z,92.15
2023-04-02T00:42:12.670Z,91.12
2023-04-02T00:44:45.356Z,91.38
2023-04-02T00:47:24.935Z,90.86
2023-04-02T00:50:01.339Z,90.79
2023-04-02T00:52:31.345Z,91.12
2023-04-02T00:55:14.335Z,91.09
2023-04-02T00:57:45.307Z,91.26
2023-04-02T01:00:23.201Z,90.60
2023-04-02T01:03:18.111Z,90.03
2023-04-02T01:05:51.828Z,89.53
2023-04-02T01:08:31.940Z,88.81
2023-04-02T01:11:26.187Z,89.15
2023-04-02T01:14:07.926Z,88.55
2023-04-02T01:16:47.778Z,88.25
2023-04-02T01:19:23.236Z,87.69
2023-04-02T01:21:57.933Z,87.59
2023-04-02T01:24:31.619Z,87.52
2023-04-02T01:26:59.887Z,87.39
2023-04-02T01:29:40.243Z,87.22
2023-04-02T01:32:14.661Z,87.04
2023-04-02T01:34:44.803Z,87.09
2023-04-02T01:37:14.455Z,87.22
2023-04-02T01:40:05.678Z,86.86
2023-04-02T01:42:41.983Z,87.33
2023-04-02T01:45:12.881Z,87.23
2023-04-02T01:47:40.866Z,86.49
2023-04-02T01:50:10.481Z,87.19
2023-04-02T01:52:42.207Z,88.29
2023-04-02T01:55:13.247Z,88.00
2023-04-02T01:57:47.632Z,87.94
2023-04-02T02:00:17.079Z,87.82
2023-04-02T02:02:48.508Z,87.84
2023-04-02T02:05:23.268Z,87.54
2023-04-02T02:07:53.538Z,87.41
2023-04-02T02:10:33.531Z,87.52
2023-04-02T02:13:00.697Z,87.45
2023-04-02T02:15:28.115Z,86.72
2023-04-02T02:18:01.184Z,86.90
2023-04-02T02:20:28.677Z,85.91
2023-04-02T02:22:56.844Z,85.99
2023-04-02T02:25:28.103Z,86.29
2023-04-02T02:28:17.033Z,86.19
2023-04-02T02:30:47.761Z,85.98
2023-04-02T02:33:29.009Z,85.53
2023-04-02T02:36:19.468Z,85.89
2023-04-02T02:39:05.263Z,86.42
2023-04-02T02:41:43.037Z,86.71
2023-04-02T02:44:09.606Z,86.25
2023-04-02T02:46:43.696Z,86.28
2023-04-02T02:49:16.866Z,86.29
2023-04-02T02:52:03.851Z,86.57
2023-04-02T02:54:32.745Z,85.99
2023-04-02T02:57:07.163Z,86.01
2023-04-02T02:59:34.385Z,86.13
2023-04-02T03:02:05.453Z,85.49
2023-04-02T03:04:35.821Z,85.19
2023-04-02T03:07:09.665Z,85.12
2023-04-02T03:09:53.856Z,85.23
2023-04-02T03:12:42.671Z,84.82
2023-04-02T03:15:31.059Z,84.73
2023-04-02T03:18:07.481Z,85.41
2023-04-02T03:20:45.749Z,84.35
2023-04-02T03:23:33.175Z,84.65
2023-04-02T03:26:11.249Z,84.31
2023-04-02T03:28:46.716Z,84.36
2023-04-02T03:31:38.287Z,83.86
2023-04-02T03:34:25.695Z,84.50
2023-04-02T03:37:15.603Z,84.51
2023-04-02T03:39:51.119Z,84.32
2023-04-02T03:42:27.773Z,84.11
2023-04-02T03:45:03.050Z,84.09
2023-04-02T03:47:40.775Z,84.36
2023-04-02T03:50:16.343Z,84.23
2023-04-02T03:52:45.777Z,83.59
2023-04-02T03:55:17.615Z,84.04
2023-04-02T03:58:00.057Z,84.08
2023-04-02T04:00:42.519Z,84.14
2023-04-02T04:03:17.110Z,83.65
2023-04-02T04:06:08.118Z,83.56
2023-04-02T04:08:45.515Z,82.79
2023-04-02T04:11:17.943Z,83.40
2023-04-02T04:13:57.836Z,83.21
2023-04-02T04:16:32.633Z,83.21
2023-04-02T04:19:15.868Z,83.65
2023-04-02T04:21:45.160Z,83.94
2023-04-02T04:24:22.838Z,84.75
2023-04-02T04:26:58.547Z,85.21
2023-04-02T04:29:45.854Z,85.13
2023-04-02T04:32:35.372Z,85.98
2023-04-02T04:35:12.836Z,86.11
2023-04-02T04:37:43.815Z,86.16
2023-04-02T04:40:22.811Z,85.96
2023-04-02T04:42:53.406Z,85.44
2023-04-02T04:45:23.183Z,85.10
2023-04-02T04:48:00.175Z,85.04
2023-04-02T04:50:39.076Z,84.83
2023-04-02T04:53:08.796Z,85.11
2023-04-02T04:55:43.017Z,85.00
2023-04-02T04:58:28.164Z,84.45
2023-04-02T05:01:07.453Z,84.89
2023-04-02T05:03:40.277Z,85.25
2023-04-02T05:06:41.909Z,84.43
2023-04-02T05:09:22.755Z,84.39
2023-04-02T05:12:03.716Z,84.22
2023-04-02T05:14:46.910Z,84.06
2023-04-02T05:17:27.831Z,84.10
2023-04-02T05:20:09.984Z,83.61
2023-04-02T05:22:50.246Z,83.72
2023-04-02T05:25:22.818Z,83.22
2023-04-02T05:28:16.012Z,83.11
2023-04-02T05:30:52.966Z,83.46
2023-04-02T05:33:22.753Z,83.20
2023-04-02T05:35:56.169Z,82.92
2023-04-02T05:38:26.890Z,82.97
2023-04-02T05:41:30.589Z,83.28
2023-04-02T05:44:39.257Z,82.64
2023-04-02T05:47:14.016Z,82.92
2023-04-02T05:49:47.760Z,83.26
2023-04-02T05:52:20.051Z,83.15
2023-04-02T05:54:52.286Z,82.71
2023-04-02T05:57:39.450Z,83.19
2023-04-02T06:00:17.745Z,82.74
2023-04-02T06:03:07.628Z,82.69
2023-04-02T06:05:39.649Z,82.27
2023-04-02T06:08:11.891Z,81.65
2023-04-02T06:10:50.035Z,81.83
2023-04-02T06:13:19.381Z,81.95
2023-04-02T06:15:47.781Z,81.22
2023-04-02T06:18:23.754Z,81.79
2023-04-02T06:20:51.177Z,81.59
2023-04-02T06:23:31.255Z,81.06
2023-04-02T06:26:23.837Z,80.55
2023-04-02T06:29:08.547Z,80.71
2023-04-02T06:31:58.917Z,81.08
2023-04-02T06:34:27.956Z,80.94
2023-04-02T06:37:27.898Z,80.83
2023-04-02T06:39:55.383Z,81.35
2023-04-02T06:42:27.225Z,81.02
2023-04-02T06:44:54.417Z,80.44
2023-04-02T06:47:42.754Z,80.06
2023-04-02T06:50:29.000Z,81.03
2023-04-02T06:52:59.925Z,80.55
2023-04-02T06:55:47.819Z,80.49
2023-04-02T06:58:16.579Z,80.02
2023-04-02T07:00:48.957Z,80.28
2023-04-02T07:03:17.763Z,80.08
2023-04-02T07:05:44.355Z,79.63
2023-04-02T07:08:11.372Z,79.16
2023-04-02T07:10:38.030Z,79.80
2023-04-02T07:13:05.908Z,78.88
2023-04-02T07:15:32.811Z,78.90
2023-04-02T07:18:00.437Z,79.06
2023-04-02T07:20:30.949Z,78.72
2023-04-02T07:23:00.079Z,79.01
2023-04-02T07:25:27.060Z,78.88
2023-04-02T07:27:54.359Z,79.60
2023-04-02T07:30:21.031Z,78.74
2023-04-02T07:32:48.143Z,78.90
2023-04-02T07:35:14.832Z,79.00
2023-04-02T07:37:41.492Z,80.95
2023-04-02T07:40:17.269Z,80.09
2023-04-02T07:42:44.279Z,79.73
2023-04-02T07:45:11.267Z,78.05
2023-04-02T07:47:38.914Z,80.65
2023-04-02T07:50:06.777Z,77.99
2023-04-02T07:52:33.435Z,76.93
2023-04-02T07:55:00.012Z,77.15
2023-04-02T07:57:26.648Z,77.97
2023-04-02T07:59:56.753Z,76.94
2023-04-02T08:02:23.570Z,77.40
2023-04-02T08:04:51.888Z,76.46
2023-04-02T08:07:22.165Z,76.37
2023-04-02T08:09:48.756Z,75.97
2023-04-02T08:12:15.741Z,76.22
2023-04-02T08:14:42.716Z,76.90
2023-04-02T08:17:09.404Z,76.29
2023-04-02T08:19:47.829Z,75.93
2023-04-02T08:22:18.997Z,75.91
2023-04-02T08:24:45.579Z,75.48
2023-04-02T08:27:15.268Z,75.38
2023-04-02T08:29:44.810Z,75.20
2023-04-02T08:32:15.897Z,74.93
2023-04-02T08:34:43.774Z,73.56
2023-04-02T08:37:13.055Z,73.48
2023-04-02T08:39:40.271Z,73.64
2023-04-02T08:42:23.502Z,73.54
2023-04-02T08:45:25.392Z,74.09
2023-04-02T08:47:56.649Z,73.76
2023-04-02T08:50:35.947Z,74.20
2023-04-02T08:53:07.169Z,74.38
2023-04-02T08:55:43.151Z,73.20
2023-04-02T08:58:15.592Z,73.43
2023-04-02T09:00:45.742Z,73.33
2023-04-02T09:03:21.826Z,73.14
2023-04-02T09:05:51.312Z,73.24
2023-04-02T09:08:27.316Z,73.78
2023-04-02T09:11:37.684Z,73.49
2023-04-02T09:14:13.635Z,73.33
2023-04-02T09:16:51.199Z,73.16
2023-04-02T09:19:34.646Z,73.01
2023-04-02T09:22:27.209Z,73.38
2023-04-02T09:24:55.696Z,73.34
2023-04-02T09:27:25.059Z,73.06
2023-04-02T09:29:55.221Z,73.01
2023-04-02T09:32:40.690Z,71.76
2023-04-02T09:35:26.261Z,71.89
2023-04-02T09:38:20.046Z,71.65
2023-04-02T09:41:01.749Z,71.86
2023-04-02T09:43:36.402Z,71.85
2023-04-02T09:46:07.104Z,71.04
2023-04-02T09:48:39.308Z,71.71
2023-04-02T09:51:21.865Z,71.45
2023-04-02T09:54:06.120Z,71.35
2023-04-02T09:56:37.467Z,71.49
2023-04-02T09:59:15.772Z,71.40
2023-04-02T10:01:56.012Z,71.39
2023-04-02T10:04:48.630Z,71.41
2023-04-02T10:07:38.999Z,70.69
2023-04-02T10:10:44.686Z,70.90
2023-04-02T10:13:29.776Z,70.78
2023-04-02T10:16:19.592Z,70.44
2023-04-02T10:19:01.117Z,70.20
2023-04-02T10:21:38.726Z,70.23
2023-04-02T10:24:13.480Z,70.96
2023-04-02T10:26:52.215Z,70.55
2023-04-02T10:29:44.684Z,70.64
2023-04-02T10:32:31.778Z,70.05
2023-04-02T10:35:07.512Z,69.39
2023-04-02T10:37:47.147Z,69.14
2023-04-02T10:40:35.276Z,69.27
2023-04-02T10:43:39.620Z,69.06
2023-04-02T10:46:11.022Z,68.96
2023-04-02T10:49:08.052Z,69.17
2023-04-02T10:51:45.483Z,69.55
2023-04-02T10:54:31.026Z,70.00
2023-04-02T10:57:06.588Z,69.83
2023-04-02T10:59:37.399Z,69.79
2023-04-02T11:02:24.988Z,69.18
2023-04-02T11:04:57.126Z,69.86
2023-04-02T11:07:31.153Z,69.29
2023-04-02T11:09:59.948Z,69.42
2023-04-02T11:12:43.536Z,69.47
2023-04-02T11:15:18.229Z,69.18
2023-04-02T11:17:46.034Z,69.17
2023-04-02T11:20:56.427Z,68.81
2023-04-02T11:23:28.255Z,68.67
2023-04-02T11:26:29.652Z,68.31
2023-04-02T11:29:15.223Z,68.24
2023-04-02T11:31:43.192Z,68.53
2023-04-02T11:34:41.477Z,68.66
2023-04-02T11:37:11.194Z,68.37
2023-04-02T11:39:53.805Z,68.38
2023-04-02T11:42:35.321Z,68.12
2023-04-02T11:45:21.896Z,68.14
2023-04-02T11:48:17.696Z,67.63
2023-04-02T11:50:47.331Z,67.69
2023-04-02T11:53:17.372Z,67.74
2023-04-02T11:55:46.615Z,67.62
2023-04-02T11:58:13.522Z,67.51
2023-04-02T12:01:18.557Z,67.18
2023-04-02T12:03:48.222Z,67.37
2023-04-02T12:06:39.998Z,67.45
2023-04-02T12:09:28.325Z,67.13
2023-04-02T12:11:58.457Z,66.73
2023-04-02T12:14:47.908Z,65.92
2023-04-02T12:17:38.932Z,65.94
2023-04-02T12:20:09.819Z,66.00
2023-04-02T12:22:53.942Z,66.03
2023-04-02T12:25:27.183Z,66.12
2023-04-02T12:28:18.174Z,65.90
2023-04-02T12:30:46.391Z,65.80
2023-04-02T12:33:22.287Z,65.21
2023-04-02T12:35:51.343Z,65.52
2023-04-02T12:38:24.780Z,65.48
2023-04-02T12:41:04.547Z,65.42
2023-04-02T12:43:33.770Z,65.02
2023-04-02T12:46:09.532Z,64.57
2023-04-02T12:48:36.589Z,64.84
2023-04-02T12:51:04.339Z,64.83
2023-04-02T12:53:40.298Z,65.05
2023-04-02T12:56:08.638Z,65.55
2023-04-02T12:58:38.365Z,65.60
2023-04-02T13:01:18.758Z,64.86
2023-04-02T13:04:06.381Z,64.47
2023-04-02T13:06:34.663Z,64.90
2023-04-02T13:09:04.151Z,64.08
2023-04-02T13:11:35.531Z,64.25
2023-04-02T13:14:04.624Z,64.32
2023-04-02T13:16:38.199Z,64.50
2023-04-02T13:19:19.294Z,63.86
2023-04-02T13:21:46.188Z,64.35
2023-04-02T13:24:20.770Z,63.98
2023-04-02T13:26:49.826Z,64.24
2023-04-02T13:29:29.952Z,64.05
2023-04-02T13:32:02.438Z,63.29
2023-04-02T13:34:29.152Z,63.00
2023-04-02T13:36:57.395Z,62.54
2023-04-02T13:39:24.409Z,62.95
2023-04-02T13:41:58.116Z,62.70
2023-04-02T13:44:30.874Z,62.63
2023-04-02T13:46:58.428Z,62.23
2023-04-02T13:49:26.578Z,61.85
2023-04-02T13:51:58.998Z,61.72
2023-04-02T13:54:48.940Z,61.49
2023-04-02T13:57:15.847Z,61.01
2023-04-02T13:59:42.794Z,60.65
2023-04-02T14:02:17.474Z,61.28
2023-04-02T14:04:51.670Z,61.20
2023-04-02T14:07:18.307Z,60.45
2023-04-02T14:10:01.216Z,60.02
2023-04-02T14:12:54.068Z,60.41
2023-04-02T14:15:46.635Z,59.22
2023-04-02T14:19:00.937Z,59.38
2023-04-02T14:21:54.856Z,58.95
2023-04-02T14:24:49.450Z,59.25
2023-04-02T14:27:45.665Z,58.66
2023-04-02T14:30:47.263Z,58.79
2023-04-02T14:33:29.688Z,58.27
2023-04-02T14:36:19.458Z,59.33
2023-04-02T14:39:16.511Z,58.43
2023-04-02T14:41:52.678Z,58.85
2023-04-02T14:44:26.607Z,57.73
2023-04-02T14:47:13.394Z,56.85
2023-04-02T14:49:43.290Z,57.04
2023-04-02T14:52:22.168Z,56.44
2023-04-02T14:55:02.433Z,56.36
2023-04-02T14:57:49.034Z,56.36
2023-04-02T15:00:42.133Z,56.26
2023-04-02T15:03:58.852Z,56.30
2023-04-02T15:06:33.289Z,56.43
2023-04-02T15:09:09.712Z,56.30
2023-04-02T15:11:41.276Z,56.71
2023-04-02T15:14:20.266Z,56.75
2023-04-02T15:16:47.422Z,56.79
2023-04-02T15:19:18.048Z,56.51
2023-04-02T15:21:57.606Z,55.48
2023-04-02T15:24:45.985Z,56.05
2023-04-02T15:27:27.179Z,56.34
2023-04-02T15:29:59.922Z,56.69
2023-04-02T15:32:34.710Z,56.36
2023-04-02T15:35:38.806Z,56.55
2023-04-02T15:38:12.635Z,55.58
2023-04-02T15:40:48.437Z,55.26
2023-04-02T15:43:40.341Z,55.08
2023-04-02T15:46:16.242Z,55.32
2023-04-02T15:48:57.972Z,55.73
2023-04-02T15:51:27.529Z,55.70
2023-04-02T15:54:04.733Z,55.15
2023-04-02T15:56:52.694Z,54.70
2023-04-02T15:59:38.199Z,55.75
2023-04-02T16:02:23.550Z,55.77
2023-04-02T16:05:02.311Z,56.16
2023-04-02T16:07:49.545Z,56.56
2023-04-02T16:10:41.861Z,56.72
2023-04-02T16:13:34.648Z,56.52
2023-04-02T16:16:13.824Z,56.88
2023-04-02T16:18:43.350Z,57.35
2023-04-02T16:21:16.057Z,57.18
2023-04-02T16:23:44.919Z,56.61
2023-04-02T16:26:27.188Z,57.00
2023-04-02T16:29:06.806Z,57.07
2023-04-02T16:31:43.919Z,57.42
2023-04-02T16:34:13.341Z,56.88
2023-04-02T16:36:58.756Z,57.10
2023-04-02T16:39:29.422Z,56.85
2023-04-02T16:42:24.437Z,56.62
2023-04-02T16:44:56.869Z,56.52
2023-04-02T16:47:37.518Z,56.71
2023-04-02T16:50:10.117Z,57.43
2023-04-02T16:52:45.978Z,57.28
2023-04-02T16:55:32.151Z,57.61
2023-04-02T16:58:04.542Z,57.78
2023-04-02T17:00:45.700Z,57.66
2023-04-02T17:03:12.312Z,57.25
2023-04-02T17:06:16.579Z,57.27
2023-04-02T17:08:54.494Z,57.22
2023-04-02T17:11:25.033Z,56.88
2023-04-02T17:14:06.391Z,57.21
2023-04-02T17:16:45.947Z,57.23
2023-04-02T17:19:16.873Z,57.26
2023-04-02T17:21:47.373Z,57.46
2023-04-02T17:24:14.502Z,57.27
2023-04-02T17:26:43.734Z,57.47
2023-04-02T17:29:18.984Z,57.50
2023-04-02T17:31:46.604Z,56.50
2023-04-02T17:34:18.166Z,57.03
2023-04-02T17:37:02.366Z,56.67
2023-04-02T17:39:40.722Z,56.19
2023-04-02T17:42:42.689Z,56.23
2023-04-02T17:45:34.040Z,56.46
2023-04-02T17:48:19.490Z,56.84
2023-04-02T17:51:15.622Z,56.92
2023-04-02T17:54:16.147Z,56.81
2023-04-02T17:57:08.097Z,56.84
2023-04-02T17:59:55.621Z,57.04
2023-04-02T18:02:36.678Z,57.57
2023-04-02T18:05:13.407Z,57.92
2023-04-02T18:07:55.921Z,57.55
2023-04-02T18:10:41.458Z,57.73
2023-04-02T18:13:33.179Z,58.17
2023-04-02T18:16:09.916Z,57.60
2023-04-02T18:18:50.011Z,57.78
2023-04-02T18:21:33.215Z,57.92
2023-04-02T18:24:34.557Z,57.81
2023-04-02T18:27:13.175Z,58.03
2023-04-02T18:30:11.550Z,58.20
2023-04-02T18:33:02.519Z,58.37
2023-04-02T18:35:59.974Z,58.48
2023-04-02T18:39:00.516Z,58.31
2023-04-02T18:41:33.554Z,58.22
2023-04-02T18:44:18.295Z,58.26
2023-04-02T18:46:52.425Z,58.25
2023-04-02T18:49:25.255Z,58.68
2023-04-02T18:51:57.462Z,58.72
2023-04-02T18:54:38.182Z,58.95
2023-04-02T18:57:19.787Z,58.54
2023-04-02T19:00:18.787Z,59.07
2023-04-02T19:02:54.756Z,59.18
2023-04-02T19:05:29.737Z,59.60
2023-04-02T19:08:18.219Z,59.63
2023-04-02T19:10:47.706Z,60.15
2023-04-02T19:13:16.464Z,60.41
2023-04-02T19:16:07.433Z,60.45
2023-04-02T19:18:43.378Z,60.98
2023-04-02T19:21:22.338Z,61.20
2023-04-02T19:24:13.718Z,60.96
2023-04-02T19:26:56.793Z,60.96
2023-04-02T19:29:52.718Z,61.25
2023-04-02T19:32:36.380Z,62.13
2023-04-02T19:35:31.141Z,62.04
2023-04-02T19:38:39.307Z,62.20
2023-04-02T19:41:12.041Z,62.24
2023-04-02T19:43:38.761Z,62.52
2023-04-02T19:46:05.414Z,62.87
2023-04-02T19:48:51.347Z,63.13
2023-04-02T19:51:21.426Z,63.22
2023-04-02T19:53:47.987Z,62.84
2023-04-02T19:56:15.002Z,63.14
2023-04-02T19:58:42.063Z,63.24
2023-04-02T20:01:08.713Z,63.77
2023-04-02T20:03:35.670Z,63.88
2023-04-02T20:06:09.414Z,64.07
2023-04-02T20:08:36.528Z,64.47
2023-04-02T20:11:03.462Z,64.35
2023-04-02T20:13:30.466Z,64.35
2023-04-02T20:16:02.015Z,64.43
2023-04-02T20:18:29.706Z,64.36
2023-04-02T20:20:56.503Z,64.80
2023-04-02T20:23:23.420Z,64.76
2023-04-02T20:25:56.456Z,64.75
2023-04-02T20:28:25.292Z,65.37
2023-04-02T20:30:52.534Z,65.28
2023-04-02T20:33:21.465Z,65.49
2023-04-02T20:35:49.891Z,65.60
2023-04-02T20:38:17.357Z,65.77
2023-04-02T20:40:45.174Z,66.11
2023-04-02T20:43:12.750Z,66.18
2023-04-02T20:45:40.118Z,66.21
2023-04-02T20:48:07.042Z,66.31
2023-04-02T20:50:34.582Z,66.11
2023-04-02T20:53:01.885Z,66.48
2023-04-02T20:55:28.475Z,66.44
2023-04-02T20:57:55.287Z,66.73
2023-04-02T21:00:22.702Z,66.87
2023-04-02T21:02:49.511Z,66.99
2023-04-02T21:05:16.689Z,67.19
2023-04-02T21:07:43.355Z,67.40
2023-04-02T21:10:10.531Z,67.47
2023-04-02T21:12:43.796Z,67.69
2023-04-02T21:15:19.841Z,67.70
2023-04-02T21:18:06.166Z,68.31
2023-04-02T21:20:33.250Z,68.45
2023-04-02T21:23:02.814Z,68.42
2023-04-02T21:25:39.638Z,68.40
2023-04-02T21:28:06.785Z,68.50
2023-04-02T21:30:33.508Z,68.63
2023-04-02T21:33:00.549Z,68.63
2023-04-02T21:35:27.405Z,68.44
2023-04-02T21:37:54.464Z,68.41
2023-04-02T21:40:21.420Z,68.58
2023-04-02T21:42:49.583Z,68.82
2023-04-02T21:45:19.593Z,69.02
2023-04-02T21:47:46.274Z,69.17
2023-04-02T21:50:13.261Z,69.33
2023-04-02T21:52:40.014Z,69.27
2023-04-02T21:55:07.341Z,69.19
2023-04-02T21:57:34.343Z,69.38
2023-04-02T22:00:11.324Z,69.70
2023-04-02T22:02:51.852Z,70.25
2023-04-02T22:05:38.535Z,69.96
2023-04-02T22:08:13.838Z,70.23
2023-04-02T22:10:57.166Z,70.49
2023-04-02T22:13:50.031Z,70.49
2023-04-02T22:16:57.746Z,70.36
2023-04-02T22:22:40.389Z,70.98
2023-04-02T22:25:16.266Z,70.97
2023-04-02T22:28:12.960Z,71.39
2023-04-02T22:31:12.859Z,71.45
2023-04-02T22:37:01.175Z,72.10
2023-04-02T22:39:28.261Z,72.18
2023-04-02T22:44:56.647Z,72.05
2023-04-02T22:48:20.045Z,72.16
2023-04-02T22:58:49.850Z,72.97
2023-04-02T23:02:20.636Z,73.25
2023-04-02T23:04:51.104Z,73.22
2023-04-02T23:07:24.621Z,73.19
2023-04-02T23:09:57.104Z,73.35
2023-04-02T23:12:24.518Z,74.24
2023-04-02T23:14:59.357Z,74.02
2023-04-02T23:17:35.177Z,73.60
2023-04-02T23:20:11.831Z,73.57
2023-04-02T23:22:46.560Z,73.70
2023-04-02T23:25:19.860Z,73.86
2023-04-02T23:27:54.567Z,73.87
2023-04-02T23:30:25.008Z,74.14
2023-04-02T23:32:55.893Z,73.98
2023-04-02T23:35:25.951Z,73.87
2023-04-02T23:37:55.598Z,73.94
2023-04-02T23:40:28.741Z,73.80
2023-04-02T23:42:57.470Z,73.47
2023-04-02T23:45:31.019Z,73.74
2023-04-02T23:48:03.696Z,73.69
2023-04-02T23:50:36.169Z,73.88
2023-04-02T23:53:09.084Z,74.09
2023-04-02T23:55:41.795Z,73.67
2023-04-02T23:58:20.028Z,73.63
